sensor_id;sensor_type;location;lat;lon;timestamp;P1;durP1;ratioP1;P2;durP2;ratioP2
23282;SDS011;11810;51.178;3.878;2023-04-25T00:01:39;31.80;;;5.95;;
23282;SDS011;11810;51.178;3.878;2023-04-25T00:04:05;30.38;;;5.47;;
23282;SDS011;11810;51.178;3.878;2023-04-25T00:06:32;22.67;;;5.28;;
23282;SDS011;11810;51.178;3.878;2023-04-25T00:09:01;20.90;;;5.93;;
23282;SDS011;11810;51.178;3.878;2023-04-25T00:11:28;27.75;;;5.53;;
23282;SDS011;11810;51.178;3.878;2023-04-25T00:13:56;22.77;;;5.75;;
23282;SDS011;11810;51.178;3.878;2023-04-25T00:16:22;32.88;;;5.75;;
23282;SDS011;11810;51.178;3.878;2023-04-25T00:18:48;18.52;;;5.05;;
23282;SDS011;11810;51.178;3.878;2023-04-25T00:21:18;22.35;;;6.28;;
23282;SDS011;11810;51.178;3.878;2023-04-25T00:23:45;24.10;;;5.32;;
23282;SDS011;11810;51.178;3.878;2023-04-25T00:26:11;15.27;;;5.53;;
23282;SDS011;11810;51.178;3.878;2023-04-25T00:28:38;19.25;;;5.25;;
23282;SDS011;11810;51.178;3.878;2023-04-25T00:31:05;22.27;;;4.93;;
23282;SDS011;11810;51.178;3.878;2023-04-25T00:33:31;23.77;;;5.38;;
23282;SDS011;11810;51.178;3.878;2023-04-25T00:35:57;19.67;;;4.57;;
23282;SDS011;11810;51.178;3.878;2023-04-25T00:38:23;21.60;;;5.63;;
23282;SDS011;11810;51.178;3.878;2023-04-25T00:40:49;31.10;;;5.28;;
23282;SDS011;11810;51.178;3.878;2023-04-25T00:43:15;23.15;;;5.85;;
23282;SDS011;11810;51.178;3.878;2023-04-25T00:45:41;29.00;;;6.47;;
23282;SDS011;11810;51.178;3.878;2023-04-25T00:48:08;28.88;;;6.10;;
23282;SDS011;11810;51.178;3.878;2023-04-25T00:50:35;21.27;;;4.85;;
23282;SDS011;11810;51.178;3.878;2023-04-25T00:53:01;26.63;;;6.10;;
23282;SDS011;11810;51.178;3.878;2023-04-25T00:55:28;26.52;;;6.50;;
23282;SDS011;11810;51.178;3.878;2023-04-25T00:57:56;25.02;;;6.22;;
23282;SDS011;11810;51.178;3.878;2023-04-25T01:00:23;22.23;;;5.85;;
23282;SDS011;11810;51.178;3.878;2023-04-25T01:02:49;22.73;;;5.63;;
23282;SDS011;11810;51.178;3.878;2023-04-25T01:05:15;26.38;;;5.75;;
23282;SDS011;11810;51.178;3.878;2023-04-25T01:07:44;22.20;;;4.85;;
23282;SDS011;11810;51.178;3.878;2023-04-25T01:10:10;29.60;;;6.05;;
23282;SDS011;11810;51.178;3.878;2023-04-25T01:12:36;23.65;;;6.05;;
23282;SDS011;11810;51.178;3.878;2023-04-25T01:15:02;27.27;;;5.07;;
23282;SDS011;11810;51.178;3.878;2023-04-25T01:17:29;21.60;;;4.90;;
23282;SDS011;11810;51.178;3.878;2023-04-25T01:19:56;22.70;;;5.85;;
23282;SDS011;11810;51.178;3.878;2023-04-25T01:22:22;26.85;;;6.20;;
23282;SDS011;11810;51.178;3.878;2023-04-25T01:24:48;28.48;;;5.65;;
23282;SDS011;11810;51.178;3.878;2023-04-25T01:27:14;26.45;;;6.13;;
23282;SDS011;11810;51.178;3.878;2023-04-25T01:29:40;31.40;;;6.40;;
23282;SDS011;11810;51.178;3.878;2023-04-25T01:32:07;40.55;;;6.15;;
23282;SDS011;11810;51.178;3.878;2023-04-25T01:34:34;27.77;;;5.35;;
23282;SDS011;11810;51.178;3.878;2023-04-25T01:37:00;20.88;;;5.93;;
23282;SDS011;11810;51.178;3.878;2023-04-25T01:39:29;19.25;;;5.55;;
23282;SDS011;11810;51.178;3.878;2023-04-25T01:41:55;30.25;;;7.32;;
23282;SDS011;11810;51.178;3.878;2023-04-25T01:44:21;13.73;;;5.03;;
23282;SDS011;11810;51.178;3.878;2023-04-25T01:46:47;24.13;;;5.82;;
23282;SDS011;11810;51.178;3.878;2023-04-25T01:49:13;28.35;;;6.18;;
23282;SDS011;11810;51.178;3.878;2023-04-25T01:52:40;26.80;;;6.28;;
23282;SDS011;11810;51.178;3.878;2023-04-25T01:55:07;25.58;;;6.35;;
23282;SDS011;11810;51.178;3.878;2023-04-25T01:57:33;21.60;;;6.70;;
23282;SDS011;11810;51.178;3.878;2023-04-25T01:59:59;22.70;;;6.18;;
23282;SDS011;11810;51.178;3.878;2023-04-25T02:02:28;21.20;;;6.10;;
23282;SDS011;11810;51.178;3.878;2023-04-25T02:04:54;21.10;;;6.38;;
23282;SDS011;11810;51.178;3.878;2023-04-25T02:07:20;26.02;;;6.45;;
23282;SDS011;11810;51.178;3.878;2023-04-25T02:09:46;27.67;;;6.70;;
23282;SDS011;11810;51.178;3.878;2023-04-25T02:12:12;20.08;;;5.88;;
23282;SDS011;11810;51.178;3.878;2023-04-25T02:14:38;24.58;;;5.90;;
23282;SDS011;11810;51.178;3.878;2023-04-25T02:17:05;19.75;;;6.53;;
23282;SDS011;11810;51.178;3.878;2023-04-25T02:19:31;22.60;;;6.55;;
23282;SDS011;11810;51.178;3.878;2023-04-25T02:21:57;27.08;;;7.35;;
23282;SDS011;11810;51.178;3.878;2023-04-25T02:24:23;22.95;;;7.18;;
23282;SDS011;11810;51.178;3.878;2023-04-25T02:26:49;26.33;;;7.45;;
23282;SDS011;11810;51.178;3.878;2023-04-25T02:29:15;24.48;;;7.07;;
23282;SDS011;11810;51.178;3.878;2023-04-25T02:31:42;30.55;;;7.95;;
23282;SDS011;11810;51.178;3.878;2023-04-25T02:34:08;22.98;;;7.90;;
23282;SDS011;11810;51.178;3.878;2023-04-25T02:36:34;20.23;;;7.10;;
23282;SDS011;11810;51.178;3.878;2023-04-25T02:39:00;25.73;;;7.43;;
23282;SDS011;11810;51.178;3.878;2023-04-25T02:41:28;26.52;;;7.82;;
23282;SDS011;11810;51.178;3.878;2023-04-25T02:43:54;24.33;;;6.53;;
23282;SDS011;11810;51.178;3.878;2023-04-25T02:46:20;22.83;;;6.68;;
23282;SDS011;11810;51.178;3.878;2023-04-25T02:48:46;18.85;;;6.57;;
23282;SDS011;11810;51.178;3.878;2023-04-25T02:51:12;20.05;;;6.55;;
23282;SDS011;11810;51.178;3.878;2023-04-25T02:53:39;25.75;;;7.60;;
23282;SDS011;11810;51.178;3.878;2023-04-25T02:56:05;23.42;;;6.15;;
23282;SDS011;11810;51.178;3.878;2023-04-25T02:58:31;26.08;;;8.10;;
23282;SDS011;11810;51.178;3.878;2023-04-25T03:00:56;33.88;;;7.13;;
23282;SDS011;11810;51.178;3.878;2023-04-25T03:03:22;26.83;;;7.35;;
23282;SDS011;11810;51.178;3.878;2023-04-25T03:05:49;28.23;;;8.15;;
23282;SDS011;11810;51.178;3.878;2023-04-25T03:08:16;27.65;;;8.18;;
23282;SDS011;11810;51.178;3.878;2023-04-25T03:10:43;27.98;;;9.15;;
23282;SDS011;11810;51.178;3.878;2023-04-25T03:13:09;27.45;;;8.88;;
23282;SDS011;11810;51.178;3.878;2023-04-25T03:15:35;29.30;;;8.98;;
23282;SDS011;11810;51.178;3.878;2023-04-25T03:18:02;27.35;;;8.60;;
23282;SDS011;11810;51.178;3.878;2023-04-25T03:20:28;26.77;;;8.68;;
23282;SDS011;11810;51.178;3.878;2023-04-25T03:22:54;21.88;;;7.60;;
23282;SDS011;11810;51.178;3.878;2023-04-25T03:25:21;23.48;;;7.43;;
23282;SDS011;11810;51.178;3.878;2023-04-25T03:27:47;26.85;;;7.88;;
23282;SDS011;11810;51.178;3.878;2023-04-25T03:30:13;25.48;;;9.07;;
23282;SDS011;11810;51.178;3.878;2023-04-25T03:32:39;28.90;;;7.78;;
23282;SDS011;11810;51.178;3.878;2023-04-25T03:35:05;23.45;;;7.53;;
23282;SDS011;11810;51.178;3.878;2023-04-25T03:37:32;18.30;;;6.55;;
23282;SDS011;11810;51.178;3.878;2023-04-25T03:39:58;24.38;;;5.68;;
23282;SDS011;11810;51.178;3.878;2023-04-25T03:42:24;16.70;;;5.47;;
23282;SDS011;11810;51.178;3.878;2023-04-25T03:44:51;20.60;;;5.90;;
23282;SDS011;11810;51.178;3.878;2023-04-25T03:47:17;27.95;;;6.03;;
23282;SDS011;11810;51.178;3.878;2023-04-25T03:49:43;13.80;;;5.05;;
23282;SDS011;11810;51.178;3.878;2023-04-25T03:52:09;18.48;;;4.97;;
23282;SDS011;11810;51.178;3.878;2023-04-25T03:54:35;22.95;;;6.15;;
23282;SDS011;11810;51.178;3.878;2023-04-25T03:57:01;18.45;;;5.85;;
23282;SDS011;11810;51.178;3.878;2023-04-25T03:59:27;23.85;;;6.40;;
23282;SDS011;11810;51.178;3.878;2023-04-25T04:01:53;21.83;;;6.68;;
23282;SDS011;11810;51.178;3.878;2023-04-25T04:04:20;15.55;;;5.20;;
23282;SDS011;11810;51.178;3.878;2023-04-25T04:06:46;24.48;;;5.90;;
23282;SDS011;11810;51.178;3.878;2023-04-25T04:09:12;27.70;;;6.28;;
23282;SDS011;11810;51.178;3.878;2023-04-25T04:11:38;22.40;;;6.20;;
23282;SDS011;11810;51.178;3.878;2023-04-25T04:14:05;16.23;;;5.15;;
23282;SDS011;11810;51.178;3.878;2023-04-25T04:16:31;21.23;;;5.50;;
23282;SDS011;11810;51.178;3.878;2023-04-25T04:18:58;16.95;;;5.15;;
23282;SDS011;11810;51.178;3.878;2023-04-25T04:21:23;19.38;;;5.30;;
23282;SDS011;11810;51.178;3.878;2023-04-25T04:23:49;25.73;;;6.10;;
23282;SDS011;11810;51.178;3.878;2023-04-25T04:26:15;20.73;;;5.05;;
23282;SDS011;11810;51.178;3.878;2023-04-25T04:28:42;13.07;;;5.35;;
23282;SDS011;11810;51.178;3.878;2023-04-25T04:31:09;15.18;;;5.22;;
23282;SDS011;11810;51.178;3.878;2023-04-25T04:33:36;10.82;;;4.95;;
23282;SDS011;11810;51.178;3.878;2023-04-25T04:36:03;20.25;;;5.43;;
23282;SDS011;11810;51.178;3.878;2023-04-25T04:38:29;25.35;;;5.95;;
23282;SDS011;11810;51.178;3.878;2023-04-25T04:40:56;25.52;;;6.00;;
23282;SDS011;11810;51.178;3.878;2023-04-25T04:43:22;14.65;;;5.07;;
23282;SDS011;11810;51.178;3.878;2023-04-25T04:45:48;18.30;;;5.30;;
23282;SDS011;11810;51.178;3.878;2023-04-25T04:48:15;18.02;;;5.15;;
23282;SDS011;11810;51.178;3.878;2023-04-25T04:50:44;27.67;;;6.43;;
23282;SDS011;11810;51.178;3.878;2023-04-25T04:53:10;21.40;;;6.38;;
23282;SDS011;11810;51.178;3.878;2023-04-25T04:55:37;18.98;;;5.82;;
23282;SDS011;11810;51.178;3.878;2023-04-25T04:58:03;26.48;;;7.15;;
23282;SDS011;11810;51.178;3.878;2023-04-25T05:00:29;12.50;;;5.80;;
23282;SDS011;11810;51.178;3.878;2023-04-25T05:02:55;16.05;;;6.50;;
23282;SDS011;11810;51.178;3.878;2023-04-25T05:05:21;25.02;;;5.47;;
23282;SDS011;11810;51.178;3.878;2023-04-25T05:07:47;17.85;;;6.05;;
23282;SDS011;11810;51.178;3.878;2023-04-25T05:10:13;21.75;;;6.55;;
23282;SDS011;11810;51.178;3.878;2023-04-25T05:12:39;17.25;;;6.10;;
23282;SDS011;11810;51.178;3.878;2023-04-25T05:15:05;36.13;;;8.05;;
23282;SDS011;11810;51.178;3.878;2023-04-25T05:17:31;27.60;;;6.20;;
23282;SDS011;11810;51.178;3.878;2023-04-25T05:19:58;23.55;;;6.63;;
23282;SDS011;11810;51.178;3.878;2023-04-25T05:22:24;23.35;;;6.38;;
23282;SDS011;11810;51.178;3.878;2023-04-25T05:24:49;15.75;;;5.97;;
23282;SDS011;11810;51.178;3.878;2023-04-25T05:27:17;20.23;;;5.53;;
23282;SDS011;11810;51.178;3.878;2023-04-25T05:29:43;23.38;;;6.30;;
23282;SDS011;11810;51.178;3.878;2023-04-25T05:32:09;20.45;;;5.88;;
23282;SDS011;11810;51.178;3.878;2023-04-25T05:34:36;23.38;;;5.53;;
23282;SDS011;11810;51.178;3.878;2023-04-25T05:37:02;21.38;;;5.50;;
23282;SDS011;11810;51.178;3.878;2023-04-25T05:39:28;23.60;;;5.63;;
23282;SDS011;11810;51.178;3.878;2023-04-25T05:41:54;19.70;;;5.32;;
23282;SDS011;11810;51.178;3.878;2023-04-25T05:44:20;22.20;;;5.65;;
23282;SDS011;11810;51.178;3.878;2023-04-25T05:46:46;22.20;;;5.25;;
23282;SDS011;11810;51.178;3.878;2023-04-25T05:49:12;18.58;;;5.40;;
23282;SDS011;11810;51.178;3.878;2023-04-25T05:51:38;17.33;;;5.05;;
23282;SDS011;11810;51.178;3.878;2023-04-25T05:54:04;17.60;;;5.20;;
23282;SDS011;11810;51.178;3.878;2023-04-25T05:56:30;19.60;;;5.25;;
23282;SDS011;11810;51.178;3.878;2023-04-25T05:58:56;21.38;;;4.70;;
23282;SDS011;11810;51.178;3.878;2023-04-25T06:01:22;23.45;;;4.97;;
23282;SDS011;11810;51.178;3.878;2023-04-25T06:03:48;22.73;;;4.85;;
23282;SDS011;11810;51.178;3.878;2023-04-25T06:06:14;19.85;;;4.40;;
23282;SDS011;11810;51.178;3.878;2023-04-25T06:08:40;20.67;;;4.88;;
23282;SDS011;11810;51.178;3.878;2023-04-25T06:11:06;14.07;;;4.22;;
23282;SDS011;11810;51.178;3.878;2023-04-25T06:13:32;10.98;;;4.00;;
23282;SDS011;11810;51.178;3.878;2023-04-25T06:15:58;15.68;;;3.92;;
23282;SDS011;11810;51.178;3.878;2023-04-25T06:18:24;15.32;;;3.25;;
23282;SDS011;11810;51.178;3.878;2023-04-25T06:20:50;10.52;;;3.13;;
23282;SDS011;11810;51.178;3.878;2023-04-25T06:23:16;12.50;;;3.20;;
23282;SDS011;11810;51.178;3.878;2023-04-25T06:25:42;11.23;;;3.20;;
23282;SDS011;11810;51.178;3.878;2023-04-25T06:28:08;13.68;;;3.55;;
23282;SDS011;11810;51.178;3.878;2023-04-25T06:30:34;15.32;;;3.92;;
23282;SDS011;11810;51.178;3.878;2023-04-25T06:33:00;13.57;;;2.97;;
23282;SDS011;11810;51.178;3.878;2023-04-25T06:35:26;16.42;;;2.95;;
23282;SDS011;11810;51.178;3.878;2023-04-25T06:37:52;14.82;;;2.90;;
23282;SDS011;11810;51.178;3.878;2023-04-25T06:40:18;10.10;;;2.83;;
23282;SDS011;11810;51.178;3.878;2023-04-25T06:42:43;14.60;;;3.63;;
23282;SDS011;11810;51.178;3.878;2023-04-25T06:45:10;10.13;;;2.72;;
23282;SDS011;11810;51.178;3.878;2023-04-25T06:47:35;14.77;;;3.42;;
23282;SDS011;11810;51.178;3.878;2023-04-25T06:50:02;17.63;;;3.30;;
23282;SDS011;11810;51.178;3.878;2023-04-25T06:52:28;16.25;;;3.63;;
23282;SDS011;11810;51.178;3.878;2023-04-25T06:54:53;14.85;;;3.85;;
23282;SDS011;11810;51.178;3.878;2023-04-25T06:57:19;16.48;;;3.60;;
23282;SDS011;11810;51.178;3.878;2023-04-25T06:59:45;19.40;;;3.95;;
23282;SDS011;11810;51.178;3.878;2023-04-25T07:02:11;15.07;;;3.58;;
23282;SDS011;11810;51.178;3.878;2023-04-25T07:04:37;16.40;;;4.45;;
23282;SDS011;11810;51.178;3.878;2023-04-25T07:07:03;16.70;;;4.28;;
23282;SDS011;11810;51.178;3.878;2023-04-25T07:09:29;19.92;;;4.68;;
23282;SDS011;11810;51.178;3.878;2023-04-25T07:11:58;17.05;;;4.20;;
23282;SDS011;11810;51.178;3.878;2023-04-25T07:14:27;9.35;;;2.30;;
23282;SDS011;11810;51.178;3.878;2023-04-25T07:16:53;6.97;;;2.20;;
23282;SDS011;11810;51.178;3.878;2023-04-25T07:19:21;13.55;;;3.35;;
23282;SDS011;11810;51.178;3.878;2023-04-25T07:21:46;12.77;;;2.90;;
23282;SDS011;11810;51.178;3.878;2023-04-25T07:24:12;12.77;;;2.05;;
23282;SDS011;11810;51.178;3.878;2023-04-25T07:26:38;11.45;;;1.88;;
23282;SDS011;11810;51.178;3.878;2023-04-25T07:29:04;6.30;;;1.90;;
23282;SDS011;11810;51.178;3.878;2023-04-25T07:31:30;6.65;;;1.60;;
23282;SDS011;11810;51.178;3.878;2023-04-25T07:33:56;11.88;;;2.45;;
23282;SDS011;11810;51.178;3.878;2023-04-25T07:36:22;8.43;;;1.77;;
23282;SDS011;11810;51.178;3.878;2023-04-25T07:38:48;10.45;;;2.58;;
23282;SDS011;11810;51.178;3.878;2023-04-25T07:41:14;8.60;;;2.10;;
23282;SDS011;11810;51.178;3.878;2023-04-25T07:43:40;12.68;;;2.58;;
23282;SDS011;11810;51.178;3.878;2023-04-25T07:46:06;7.35;;;1.80;;
23282;SDS011;11810;51.178;3.878;2023-04-25T07:48:32;7.53;;;1.50;;
23282;SDS011;11810;51.178;3.878;2023-04-25T07:50:58;8.65;;;2.13;;
23282;SDS011;11810;51.178;3.878;2023-04-25T07:53:24;7.03;;;1.48;;
23282;SDS011;11810;51.178;3.878;2023-04-25T07:55:50;6.75;;;1.45;;
23282;SDS011;11810;51.178;3.878;2023-04-25T07:58:16;2.90;;;1.30;;
23282;SDS011;11810;51.178;3.878;2023-04-25T08:00:46;4.75;;;1.40;;
23282;SDS011;11810;51.178;3.878;2023-04-25T08:03:13;9.02;;;2.28;;
23282;SDS011;11810;51.178;3.878;2023-04-25T08:05:39;6.70;;;3.15;;
23282;SDS011;11810;51.178;3.878;2023-04-25T08:08:05;13.63;;;4.07;;
23282;SDS011;11810;51.178;3.878;2023-04-25T08:10:32;5.45;;;1.55;;
23282;SDS011;11810;51.178;3.878;2023-04-25T08:12:58;7.05;;;1.73;;
23282;SDS011;11810;51.178;3.878;2023-04-25T08:15:25;6.95;;;1.40;;
23282;SDS011;11810;51.178;3.878;2023-04-25T08:17:51;6.28;;;2.67;;
23282;SDS011;11810;51.178;3.878;2023-04-25T08:20:17;11.25;;;4.38;;
23282;SDS011;11810;51.178;3.878;2023-04-25T08:22:43;23.38;;;12.65;;
23282;SDS011;11810;51.178;3.878;2023-04-25T08:25:09;7.20;;;2.45;;
23282;SDS011;11810;51.178;3.878;2023-04-25T08:27:35;12.00;;;2.00;;
23282;SDS011;11810;51.178;3.878;2023-04-25T08:30:02;8.23;;;2.33;;
23282;SDS011;11810;51.178;3.878;2023-04-25T08:32:29;6.85;;;1.60;;
23282;SDS011;11810;51.178;3.878;2023-04-25T08:34:55;16.13;;;3.80;;
23282;SDS011;11810;51.178;3.878;2023-04-25T08:37:21;10.40;;;3.45;;
23282;SDS011;11810;51.178;3.878;2023-04-25T08:39:47;13.88;;;3.22;;
23282;SDS011;11810;51.178;3.878;2023-04-25T08:42:13;6.93;;;2.53;;
23282;SDS011;11810;51.178;3.878;2023-04-25T08:44:40;7.00;;;2.20;;
23282;SDS011;11810;51.178;3.878;2023-04-25T08:47:06;10.55;;;1.70;;
23282;SDS011;11810;51.178;3.878;2023-04-25T08:49:33;8.60;;;2.10;;
23282;SDS011;11810;51.178;3.878;2023-04-25T08:52:01;13.93;;;2.78;;
23282;SDS011;11810;51.178;3.878;2023-04-25T08:54:31;10.10;;;2.95;;
23282;SDS011;11810;51.178;3.878;2023-04-25T08:57:00;12.50;;;3.00;;
23282;SDS011;11810;51.178;3.878;2023-04-25T08:59:27;10.77;;;3.35;;
23282;SDS011;11810;51.178;3.878;2023-04-25T09:01:53;10.32;;;3.15;;
23282;SDS011;11810;51.178;3.878;2023-04-25T09:04:20;10.35;;;2.75;;
23282;SDS011;11810;51.178;3.878;2023-04-25T09:06:46;11.23;;;2.90;;
23282;SDS011;11810;51.178;3.878;2023-04-25T09:09:13;8.02;;;1.95;;
23282;SDS011;11810;51.178;3.878;2023-04-25T09:11:39;5.30;;;1.48;;
23282;SDS011;11810;51.178;3.878;2023-04-25T09:19:27;9.60;;;1.92;;
23282;SDS011;11810;51.178;3.878;2023-04-25T09:21:53;11.40;;;1.67;;
23282;SDS011;11810;51.178;3.878;2023-04-25T09:24:30;12.93;;;2.10;;
23282;SDS011;11810;51.178;3.878;2023-04-25T09:27:03;11.27;;;2.78;;
23282;SDS011;11810;51.178;3.878;2023-04-25T09:29:34;1.65;;;0.35;;
23282;SDS011;11810;51.178;3.878;2023-04-25T09:32:11;0.20;;;0.20;;
23282;SDS011;11810;51.178;3.878;2023-04-25T09:34:47;0.20;;;0.20;;
23282;SDS011;11810;51.178;3.878;2023-04-25T09:37:21;0.25;;;0.25;;
23282;SDS011;11810;51.178;3.878;2023-04-25T09:39:49;0.20;;;0.20;;
23282;SDS011;11810;51.178;3.878;2023-04-25T09:42:23;0.20;;;0.20;;
23282;SDS011;11810;51.178;3.878;2023-04-25T09:44:51;0.20;;;0.20;;
23282;SDS011;11810;51.178;3.878;2023-04-25T09:47:18;5.00;;;2.13;;
23282;SDS011;11810;51.178;3.878;2023-04-25T09:49:46;0.20;;;0.20;;
23282;SDS011;11810;51.178;3.878;2023-04-25T09:52:19;0.75;;;0.75;;
23282;SDS011;11810;51.178;3.878;2023-04-25T09:54:49;0.30;;;0.30;;
23282;SDS011;11810;51.178;3.878;2023-04-25T09:59:47;10.75;;;1.30;;
23282;SDS011;11810;51.178;3.878;2023-04-25T10:02:15;0.22;;;0.22;;
23282;SDS011;11810;51.178;3.878;2023-04-25T10:04:44;0.20;;;0.20;;
23282;SDS011;11810;51.178;3.878;2023-04-25T10:07:20;0.20;;;0.20;;
23282;SDS011;11810;51.178;3.878;2023-04-25T10:09:54;0.20;;;0.20;;
23282;SDS011;11810;51.178;3.878;2023-04-25T10:12:26;0.20;;;0.20;;
23282;SDS011;11810;51.178;3.878;2023-04-25T10:14:52;0.30;;;0.30;;
23282;SDS011;11810;51.178;3.878;2023-04-25T10:17:20;0.20;;;0.20;;
23282;SDS011;11810;51.178;3.878;2023-04-25T10:19:49;2.45;;;2.05;;
23282;SDS011;11810;51.178;3.878;2023-04-25T10:22:34;0.20;;;0.20;;
23282;SDS011;11810;51.178;3.878;2023-04-25T10:25:02;0.68;;;0.68;;
23282;SDS011;11810;51.178;3.878;2023-04-25T10:27:29;0.20;;;0.20;;
23282;SDS011;11810;51.178;3.878;2023-04-25T10:30:03;0.20;;;0.20;;
23282;SDS011;11810;51.178;3.878;2023-04-25T10:32:43;0.20;;;0.20;;
23282;SDS011;11810;51.178;3.878;2023-04-25T10:35:18;0.20;;;0.20;;
23282;SDS011;11810;51.178;3.878;2023-04-25T10:40:24;0.45;;;0.45;;
23282;SDS011;11810;51.178;3.878;2023-04-25T10:42:54;10.23;;;1.00;;
23282;SDS011;11810;51.178;3.878;2023-04-25T10:45:21;0.20;;;0.20;;
23282;SDS011;11810;51.178;3.878;2023-04-25T10:47:47;0.20;;;0.20;;
23282;SDS011;11810;51.178;3.878;2023-04-25T10:50:16;0.20;;;0.20;;
23282;SDS011;11810;51.178;3.878;2023-04-25T10:52:42;0.20;;;0.20;;
23282;SDS011;11810;51.178;3.878;2023-04-25T10:55:12;0.20;;;0.20;;
23282;SDS011;11810;51.178;3.878;2023-04-25T10:57:41;9.20;;;3.10;;
23282;SDS011;11810;51.178;3.878;2023-04-25T11:00:22;6.38;;;2.13;;
23282;SDS011;11810;51.178;3.878;2023-04-25T11:02:52;7.90;;;2.17;;
23282;SDS011;11810;51.178;3.878;2023-04-25T11:05:23;7.28;;;2.25;;
23282;SDS011;11810;51.178;3.878;2023-04-25T11:07:55;7.60;;;2.08;;
23282;SDS011;11810;51.178;3.878;2023-04-25T11:10:25;8.07;;;1.88;;
23282;SDS011;11810;51.178;3.878;2023-04-25T11:12:58;5.43;;;1.58;;
23282;SDS011;11810;51.178;3.878;2023-04-25T11:15:25;8.77;;;1.38;;
23282;SDS011;11810;51.178;3.878;2023-04-25T11:17:51;5.72;;;1.63;;
23282;SDS011;11810;51.178;3.878;2023-04-25T11:20:18;5.32;;;1.40;;
23282;SDS011;11810;51.178;3.878;2023-04-25T11:22:45;10.23;;;2.20;;
23282;SDS011;11810;51.178;3.878;2023-04-25T11:25:12;5.65;;;1.70;;
23282;SDS011;11810;51.178;3.878;2023-04-25T11:27:49;11.55;;;1.55;;
23282;SDS011;11810;51.178;3.878;2023-04-25T11:30:16;8.57;;;1.63;;
23282;SDS011;11810;51.178;3.878;2023-04-25T11:32:43;7.18;;;1.50;;
23282;SDS011;11810;51.178;3.878;2023-04-25T11:35:09;7.30;;;1.45;;
23282;SDS011;11810;51.178;3.878;2023-04-25T11:37:36;8.85;;;1.70;;
23282;SDS011;11810;51.178;3.878;2023-04-25T11:40:04;7.07;;;1.58;;
23282;SDS011;11810;51.178;3.878;2023-04-25T11:42:31;10.35;;;1.58;;
23282;SDS011;11810;51.178;3.878;2023-04-25T11:44:58;3.38;;;1.27;;
23282;SDS011;11810;51.178;3.878;2023-04-25T11:47:31;8.77;;;1.98;;
23282;SDS011;11810;51.178;3.878;2023-04-25T11:49:58;6.22;;;1.80;;
23282;SDS011;11810;51.178;3.878;2023-04-25T11:52:35;6.63;;;1.35;;
23282;SDS011;11810;51.178;3.878;2023-04-25T11:55:04;7.88;;;1.65;;
23282;SDS011;11810;51.178;3.878;2023-04-25T11:57:32;6.65;;;1.70;;
23282;SDS011;11810;51.178;3.878;2023-04-25T12:02:42;11.27;;;1.75;;
23282;SDS011;11810;51.178;3.878;2023-04-25T12:05:09;10.13;;;1.65;;
23282;SDS011;11810;51.178;3.878;2023-04-25T12:07:36;8.80;;;1.60;;
23282;SDS011;11810;51.178;3.878;2023-04-25T12:10:07;4.07;;;1.60;;
23282;SDS011;11810;51.178;3.878;2023-04-25T12:12:34;5.32;;;1.50;;
23282;SDS011;11810;51.178;3.878;2023-04-25T12:17:40;9.30;;;1.33;;
23282;SDS011;11810;51.178;3.878;2023-04-25T12:20:10;7.85;;;1.67;;
23282;SDS011;11810;51.178;3.878;2023-04-25T12:22:40;9.00;;;1.60;;
23282;SDS011;11810;51.178;3.878;2023-04-25T12:25:17;4.18;;;1.30;;
23282;SDS011;11810;51.178;3.878;2023-04-25T12:33:30;7.72;;;1.40;;
23282;SDS011;11810;51.178;3.878;2023-04-25T12:35:58;6.13;;;1.08;;
23282;SDS011;11810;51.178;3.878;2023-04-25T12:40:51;6.90;;;1.38;;
23282;SDS011;11810;51.178;3.878;2023-04-25T12:43:17;7.70;;;1.55;;
23282;SDS011;11810;51.178;3.878;2023-04-25T12:45:50;3.00;;;1.17;;
23282;SDS011;11810;51.178;3.878;2023-04-25T12:48:20;6.97;;;1.77;;
23282;SDS011;11810;51.178;3.878;2023-04-25T12:50:47;10.55;;;2.83;;
23282;SDS011;11810;51.178;3.878;2023-04-25T12:53:19;7.68;;;2.13;;
23282;SDS011;11810;51.178;3.878;2023-04-25T12:55:47;9.35;;;2.42;;
23282;SDS011;11810;51.178;3.878;2023-04-25T12:58:16;7.43;;;1.73;;
23282;SDS011;11810;51.178;3.878;2023-04-25T13:00:43;8.07;;;1.55;;
23282;SDS011;11810;51.178;3.878;2023-04-25T13:03:10;10.30;;;1.83;;
23282;SDS011;11810;51.178;3.878;2023-04-25T13:05:37;5.18;;;1.50;;
23282;SDS011;11810;51.178;3.878;2023-04-25T13:08:03;9.88;;;1.50;;
23282;SDS011;11810;51.178;3.878;2023-04-25T13:10:29;7.50;;;1.65;;
23282;SDS011;11810;51.178;3.878;2023-04-25T13:12:56;5.53;;;1.30;;
23282;SDS011;11810;51.178;3.878;2023-04-25T13:15:22;4.07;;;1.20;;
23282;SDS011;11810;51.178;3.878;2023-04-25T13:17:48;6.82;;;1.42;;
23282;SDS011;11810;51.178;3.878;2023-04-25T13:20:14;6.47;;;1.50;;
23282;SDS011;11810;51.178;3.878;2023-04-25T13:22:41;6.18;;;1.70;;
23282;SDS011;11810;51.178;3.878;2023-04-25T13:25:08;9.68;;;1.35;;
23282;SDS011;11810;51.178;3.878;2023-04-25T13:27:34;7.70;;;1.40;;
23282;SDS011;11810;51.178;3.878;2023-04-25T13:30:02;5.07;;;1.80;;
23282;SDS011;11810;51.178;3.878;2023-04-25T13:32:35;9.23;;;2.13;;
23282;SDS011;11810;51.178;3.878;2023-04-25T13:35:06;7.53;;;1.33;;
23282;SDS011;11810;51.178;3.878;2023-04-25T13:37:34;9.98;;;1.38;;
23282;SDS011;11810;51.178;3.878;2023-04-25T13:40:00;9.13;;;1.92;;
23282;SDS011;11810;51.178;3.878;2023-04-25T13:42:30;12.63;;;1.80;;
23282;SDS011;11810;51.178;3.878;2023-04-25T13:44:58;9.27;;;1.80;;
23282;SDS011;11810;51.178;3.878;2023-04-25T13:47:25;5.07;;;1.42;;
23282;SDS011;11810;51.178;3.878;2023-04-25T13:49:51;9.27;;;1.58;;
23282;SDS011;11810;51.178;3.878;2023-04-25T13:52:18;10.63;;;1.70;;
23282;SDS011;11810;51.178;3.878;2023-04-25T13:54:44;6.10;;;1.95;;
23282;SDS011;11810;51.178;3.878;2023-04-25T13:57:10;7.43;;;1.52;;
23282;SDS011;11810;51.178;3.878;2023-04-25T13:59:36;8.10;;;1.33;;
23282;SDS011;11810;51.178;3.878;2023-04-25T14:02:03;7.18;;;1.75;;
23282;SDS011;11810;51.178;3.878;2023-04-25T14:04:29;4.03;;;1.23;;
23282;SDS011;11810;51.178;3.878;2023-04-25T14:06:55;6.00;;;1.20;;
23282;SDS011;11810;51.178;3.878;2023-04-25T14:09:21;7.63;;;1.27;;
23282;SDS011;11810;51.178;3.878;2023-04-25T14:11:53;2.88;;;1.40;;
23282;SDS011;11810;51.178;3.878;2023-04-25T14:14:21;7.25;;;1.10;;
23282;SDS011;11810;51.178;3.878;2023-04-25T14:16:47;6.45;;;1.40;;
23282;SDS011;11810;51.178;3.878;2023-04-25T14:19:14;9.00;;;1.55;;
23282;SDS011;11810;51.178;3.878;2023-04-25T14:21:40;5.18;;;1.30;;
23282;SDS011;11810;51.178;3.878;2023-04-25T14:24:07;6.15;;;1.50;;
23282;SDS011;11810;51.178;3.878;2023-04-25T14:26:34;7.68;;;1.70;;
23282;SDS011;11810;51.178;3.878;2023-04-25T14:29:03;4.75;;;1.35;;
23282;SDS011;11810;51.178;3.878;2023-04-25T14:31:31;7.22;;;1.67;;
23282;SDS011;11810;51.178;3.878;2023-04-25T14:33:57;7.90;;;1.45;;
23282;SDS011;11810;51.178;3.878;2023-04-25T14:36:23;3.70;;;1.40;;
23282;SDS011;11810;51.178;3.878;2023-04-25T14:38:49;3.78;;;1.20;;
23282;SDS011;11810;51.178;3.878;2023-04-25T14:41:15;3.13;;;1.10;;
23282;SDS011;11810;51.178;3.878;2023-04-25T14:43:40;6.68;;;1.60;;
23282;SDS011;11810;51.178;3.878;2023-04-25T14:46:06;7.18;;;1.60;;
23282;SDS011;11810;51.178;3.878;2023-04-25T14:48:34;8.32;;;1.70;;
23282;SDS011;11810;51.178;3.878;2023-04-25T14:51:00;11.15;;;1.65;;
23282;SDS011;11810;51.178;3.878;2023-04-25T14:53:26;9.57;;;1.95;;
23282;SDS011;11810;51.178;3.878;2023-04-25T14:55:52;8.25;;;1.98;;
23282;SDS011;11810;51.178;3.878;2023-04-25T14:58:18;4.88;;;1.88;;
23282;SDS011;11810;51.178;3.878;2023-04-25T15:00:45;8.93;;;1.85;;
23282;SDS011;11810;51.178;3.878;2023-04-25T15:03:11;7.53;;;1.63;;
23282;SDS011;11810;51.178;3.878;2023-04-25T15:05:41;10.82;;;2.45;;